Time;durP1;ratioP1;P1;durP2;ratioP2;P2;SDS_P1;SDS_P2;PMS_P1;PMS_P2;Temp;Humidity;BMP_temperature;BMP_pressure;BME280_temperature;BME280_humidity;BME280_pressure;Samples;Min_cycle;Max_cycle;Signal;HPM_P1;HPM_P2
2021/11/14 00:00:58;;;;;;;119.60;80.30;;;;;;;2.91;82.19;100756.27;108810;1277;22009;-76
2021/11/14 00:03:28;;;;;;;113.20;82.50;;;;;;;2.89;82.01;100761.63;108730;1277;24397;-78
2021/11/14 00:05:59;;;;;;;114.70;81.00;;;;;;;2.88;82.09;100760.84;108409;1285;21983;-78
2021/11/14 00:08:29;;;;;;;114.40;76.90;;;;;;;2.86;82.01;100763.77;108032;1290;23065;-77
2021/11/14 00:11:09;;;;;;;115.70;79.40;;;;;;;2.82;81.98;100762.62;107789;1290;22073;-76
2021/11/14 00:13:41;;;;;;;126.00;86.40;;;;;;;2.83;82.26;100762.41;108018;1291;23851;-77
2021/11/14 00:16:13;;;;;;;125.60;85.80;;;;;;;2.89;82.48;100759.84;107860;1291;24053;-76
2021/11/14 00:18:44;;;;;;;132.50;88.40;;;;;;;2.94;82.58;100756.39;108023;1291;22865;-77
2021/11/14 00:21:17;;;;;;;131.80;88.20;;;;;;;2.98;82.50;100755.89;107739;1291;22967;-77
2021/11/14 00:23:47;;;;;;;123.20;78.80;;;;;;;2.99;82.30;100756.23;108207;1285;22753;-77
2021/11/14 00:26:17;;;;;;;124.20;79.30;;;;;;;3.00;82.36;100753.66;108519;1277;21990;-76
2021/11/14 00:28:46;;;;;;;116.00;80.00;;;;;;;3.01;82.20;100754.32;108784;1277;21992;-77
2021/11/14 00:31:19;;;;;;;111.90;77.40;;;;;;;2.98;81.93;100758.73;108823;1277;23177;-76
2021/11/14 00:33:50;;;;;;;116.80;75.10;;;;;;;2.91;81.91;100758.66;108722;1277;22010;-76
2021/11/14 00:36:23;;;;;;;108.70;76.10;;;;;;;2.86;81.88;100760.94;108854;1277;22039;-76
2021/11/14 00:38:52;;;;;;;129.80;81.20;;;;;;;2.85;82.13;100763.84;108913;1277;23772;-77
2021/11/14 00:41:24;;;;;;;131.70;80.40;;;;;;;2.80;81.88;100765.38;108723;1277;23031;-77
2021/11/14 00:43:53;;;;;;;156.60;101.30;;;;;;;2.73;81.91;100765.18;108873;1277;23683;-77
2021/11/14 00:46:23;;;;;;;248.10;147.50;;;;;;;2.66;81.90;100764.30;108880;1277;22349;-77
2021/11/14 00:48:53;;;;;;;177.20;108.30;;;;;;;2.59;81.94;100771.02;108697;1277;22007;-77
2021/11/14 00:51:29;;;;;;;137.50;90.10;;;;;;;2.56;82.17;100774.33;108525;1279;22090;-78
2021/11/14 00:54:04;;;;;;;135.70;86.60;;;;;;;2.59;82.49;100777.77;108721;1278;22123;-77
2021/11/14 00:56:34;;;;;;;126.70;82.40;;;;;;;2.62;82.45;100777.21;108703;1277;22100;-77
2021/11/14 00:59:03;;;;;;;129.50;82.50;;;;;;;2.63;82.37;100776.48;108726;1277;23060;-77
2021/11/14 01:01:33;;;;;;;134.50;77.90;;;;;;;2.63;82.44;100774.39;108759;1277;22007;-77
2021/11/14 01:04:03;;;;;;;117.20;75.70;;;;;;;2.66;82.54;100774.70;108677;1277;23595;-77
2021/11/14 01:06:33;;;;;;;110.10;75.70;;;;;;;2.69;82.54;100773.09;108975;1276;22499;-78
2021/11/14 01:09:03;;;;;;;122.30;79.60;;;;;;;2.69;82.49;100772.22;108919;1277;22666;-78
2021/11/14 01:11:32;;;;;;;111.50;77.80;;;;;;;2.68;82.43;100778.40;108827;1277;22032;-78
2021/11/14 01:14:02;;;;;;;111.80;77.10;;;;;;;2.70;82.52;100768.85;108923;1274;22036;-78
2021/11/14 01:16:31;;;;;;;109.20;76.50;;;;;;;2.72;82.48;100766.98;109157;1277;21989;-78
2021/11/14 01:19:00;;;;;;;98.80;72.70;;;;;;;2.71;82.27;100769.15;108984;1285;21998;-76
2021/11/14 01:21:30;;;;;;;116.70;79.60;;;;;;;2.66;82.05;100771.25;108361;1285;21965;-77
2021/11/14 01:24:00;;;;;;;102.20;72.80;;;;;;;2.59;81.94;100771.34;108502;1283;22058;-77
2021/11/14 01:26:29;;;;;;;91.20;64.70;;;;;;;2.50;81.81;100772.16;108461;1285;22049;-77
2021/11/14 01:28:59;;;;;;;99.10;68.50;;;;;;;2.39;81.70;100774.13;108346;1285;23138;-77
2021/11/14 01:31:28;;;;;;;91.40;67.80;;;;;;;2.31;81.92;100770.11;107997;1291;23129;-77
2021/11/14 01:33:58;;;;;;;103.40;66.00;;;;;;;2.24;82.02;100772.18;108272;1291;22042;-77
2021/11/14 01:36:32;;;;;;;98.10;62.50;;;;;;;2.19;82.15;100775.98;108807;1285;22013;-77
2021/11/14 01:39:08;;;;;;;90.10;62.90;;;;;;;2.15;82.19;100777.36;108569;1284;23876;-77
2021/11/14 01:41:37;;;;;;;85.30;62.10;;;;;;;2.12;82.32;100785.32;108586;1283;21999;-78
2021/11/14 01:44:08;;;;;;;90.70;64.40;;;;;;;2.14;82.57;100787.80;108457;1285;22005;-78
2021/11/14 01:46:37;;;;;;;97.60;65.80;;;;;;;2.20;82.71;100789.15;108071;1291;22005;-78
2021/11/14 01:49:07;;;;;;;93.40;66.10;;;;;;;2.22;82.70;100790.40;108320;1283;22186;-75
2021/11/14 01:51:56;;;;;;;94.00;62.20;;;;;;;2.24;82.77;100791.69;108411;1283;23612;-77
2021/11/14 01:54:25;;;;;;;94.00;60.30;;;;;;;2.24;82.70;100795.31;108359;1283;23513;-77
2021/11/14 01:56:55;;;;;;;94.90;60.70;;;;;;;2.24;82.66;100802.26;108397;1283;21975;-76
2021/11/14 01:59:24;;;;;;;79.00;60.40;;;;;;;2.24;82.71;100808.35;107997;1289;22047;-77
2021/11/14 02:01:53;;;;;;;86.40;61.80;;;;;;;2.23;82.68;100815.17;108085;1289;23746;-77
2021/11/14 02:04:23;;;;;;;87.40;58.70;;;;;;;2.23;82.62;100815.20;108051;1285;22509;-76
2021/11/14 02:06:51;;;;;;;80.20;61.90;;;;;;;2.22;82.61;100819.59;108393;1283;22032;-76
2021/11/14 02:09:21;;;;;;;83.60;59.70;;;;;;;2.22;82.58;100821.18;108438;1284;23715;-77
2021/11/14 02:11:50;;;;;;;98.60;62.30;;;;;;;2.24;82.77;100820.66;108075;1288;21977;-77
2021/11/14 02:14:19;;;;;;;75.90;60.80;;;;;;;2.27;82.74;100825.54;108054;1288;23701;-78
2021/11/14 02:16:49;;;;;;;88.30;62.70;;;;;;;2.30;82.91;100821.86;107772;1288;23706;-77
2021/11/14 02:19:19;;;;;;;83.40;62.10;;;;;;;2.35;83.02;100823.75;108219;1288;23726;-77
2021/11/14 02:21:48;;;;;;;85.30;62.60;;;;;;;2.40;83.07;100829.33;108095;1288;22437;-77
2021/11/14 02:24:17;;;;;;;80.50;56.80;;;;;;;2.43;82.86;100831.93;108209;1286;22472;-75
2021/11/14 02:26:46;;;;;;;74.30;54.20;;;;;;;2.39;82.51;100836.34;107985;1291;22194;-76
2021/11/14 02:29:15;;;;;;;74.60;54.10;;;;;;;2.31;82.21;100836.67;107703;1292;23821;-76
2021/11/14 02:31:45;;;;;;;87.80;54.10;;;;;;;2.25;82.21;100833.15;108042;1288;23865;-76
2021/11/14 02:34:14;;;;;;;72.00;56.10;;;;;;;2.18;82.28;100829.23;108074;1286;22221;-77
2021/11/14 02:36:43;;;;;;;66.50;53.30;;;;;;;2.14;82.39;100835.58;108177;1288;22109;-77
2021/11/14 02:39:12;;;;;;;73.40;52.10;;;;;;;2.10;82.37;100840.86;108206;1288;24963;-76
2021/11/14 02:41:41;;;;;;;73.20;52.50;;;;;;;2.06;82.38;100846.38;108258;1286;23052;-76
2021/11/14 02:44:11;;;;;;;72.70;53.40;;;;;;;2.03;82.40;100845.53;108197;1283;22027;-76
2021/11/14 02:46:41;;;;;;;70.30;53.60;;;;;;;2.01;82.50;100850.36;108437;1283;22005;-77
2021/11/14 02:49:10;;;;;;;70.70;53.30;;;;;;;2.02;82.61;100853.77;108458;1282;23663;-76
2021/11/14 02:51:39;;;;;;;77.80;56.60;;;;;;;2.06;82.70;100853.83;108461;1277;22032;-76
2021/11/14 02:54:09;;;;;;;73.60;57.50;;;;;;;2.07;82.54;100858.14;108799;1277;22456;-76
2021/11/14 02:56:38;;;;;;;74.90;54.20;;;;;;;2.05;82.53;100866.74;108808;1277;23574;-77
2021/11/14 02:59:08;;;;;;;73.40;58.60;;;;;;;2.04;82.60;100864.57;108753;1277;23015;-76
2021/11/14 03:01:49;;;;;;;70.20;55.10;;;;;;;2.08;82.86;100863.43;108889;1276;22015;-76
2021/11/14 03:04:23;;;;;;;81.00;57.30;;;;;;;2.14;82.94;100864.80;108646;1278;21985;-77
2021/11/14 03:06:54;;;;;;;73.30;57.70;;;;;;;2.18;82.96;100863.15;108510;1278;22153;-76
2021/11/14 03:09:25;;;;;;;74.60;56.80;;;;;;;2.22;83.02;100866.68;108779;1277;22064;-76
2021/11/14 03:11:58;;;;;;;76.00;57.20;;;;;;;2.26;82.93;100866.23;108383;1283;23703;-76
2021/11/14 03:14:27;;;;;;;78.20;59.80;;;;;;;2.28;82.77;100870.13;108206;1285;21986;-76
2021/11/14 03:16:56;;;;;;;77.30;58.80;;;;;;;2.32;82.85;100870.92;108029;1288;21995;-77
2021/11/14 03:19:26;;;;;;;71.20;55.20;;;;;;;2.36;82.96;100870.92;108033;1288;22030;-76
2021/11/14 03:21:55;;;;;;;73.80;52.90;;;;;;;2.42;82.99;100870.41;107743;1292;22670;-77
2021/11/14 03:24:24;;;;;;;67.30;51.70;;;;;;;2.42;82.75;100869.85;107395;1297;22131;-77
2021/11/14 03:26:53;;;;;;;63.00;48.40;;;;;;;2.42;82.70;100873.52;107313;1297;22001;-78
2021/11/14 03:29:22;;;;;;;69.40;47.20;;;;;;;2.42;82.74;100878.03;107320;1296;22011;-77
2021/11/14 03:31:51;;;;;;;56.40;46.00;;;;;;;2.39;82.42;100875.46;107519;1297;23807;-77
2021/11/14 03:34:20;;;;;;;61.50;46.80;;;;;;;2.37;82.48;100876.81;107580;1291;22084;-76
2021/11/14 03:36:50;;;;;;;56.00;45.60;;;;;;;2.34;82.33;100875.08;107625;1295;22110;-77
2021/11/14 03:39:19;;;;;;;61.30;47.80;;;;;;;2.29;82.11;100873.34;107704;1289;23094;-77
2021/11/14 03:41:51;;;;;;;67.00;49.90;;;;;;;2.25;82.05;100874.84;108048;1284;22839;-78
2021/11/14 03:44:20;;;;;;;70.20;53.00;;;;;;;2.23;82.16;100874.08;108270;1283;22006;-77
2021/11/14 03:46:49;;;;;;;69.60;50.80;;;;;;;2.22;82.24;100876.98;108287;1283;22855;-77
2021/11/14 03:49:18;;;;;;;71.50;51.60;;;;;;;2.25;82.37;100874.97;108377;1283;23181;-77
2021/11/14 03:51:47;;;;;;;67.50;48.10;;;;;;;2.26;82.35;100875.97;108420;1283;21993;-77
2021/11/14 03:54:16;;;;;;;73.80;49.10;;;;;;;2.26;82.35;100878.39;108441;1277;21985;-77
2021/11/14 03:56:45;;;;;;;73.40;47.60;;;;;;;2.24;82.29;100886.87;108942;1276;21992;-77
2021/11/14 03:59:14;;;;;;;57.60;45.20;;;;;;;2.22;82.16;100887.89;108342;1283;23201;-76
2021/11/14 04:01:43;;;;;;;64.10;46.50;;;;;;;2.21;82.15;100890.21;108271;1285;22097;-77
2021/11/14 04:04:13;;;;;;;56.30;47.10;;;;;;;2.18;82.15;100892.35;108084;1288;21988;-77
2021/11/14 04:06:42;;;;;;;56.60;46.90;;;;;;;2.19;82.24;100896.27;108054;1288;22029;-77
2021/11/14 04:09:11;;;;;;;51.30;43.10;;;;;;;2.22;82.28;100898.84;108068;1288;22123;-78
2021/11/14 04:11:40;;;;;;;51.40;43.20;;;;;;;2.24;82.18;100899.56;108065;1288;22758;-77
2021/11/14 04:14:09;;;;;;;47.80;42.00;;;;;;;2.25;82.11;100900.36;108236;1288;22036;-77
2021/11/14 04:16:38;;;;;;;59.40;44.40;;;;;;;2.25;82.11;100901.92;108093;1283;22996;-76
2021/11/14 04:19:07;;;;;;;51.60;41.10;;;;;;;2.26;81.98;100902.04;108602;1276;23075;-76
2021/11/14 04:21:36;;;;;;;54.20;41.50;;;;;;;2.25;81.79;100902.66;108030;1285;23309;-77
2021/11/14 04:24:05;;;;;;;49.80;42.30;;;;;;;2.23;81.73;100907.30;107726;1291;22546;-76
2021/11/14 04:26:35;;;;;;;52.60;38.90;;;;;;;2.19;81.64;100903.73;107713;1291;22050;-76
2021/11/14 04:29:04;;;;;;;48.70;40.20;;;;;;;2.16;81.67;100902.17;107951;1291;23617;-76
2021/11/14 04:31:33;;;;;;;47.70;40.00;;;;;;;2.15;81.59;100904.70;107903;1291;24443;-77
2021/11/14 04:34:02;;;;;;;66.10;44.10;;;;;;;2.12;81.69;100907.98;107938;1291;22016;-76
2021/11/14 04:36:31;;;;;;;49.20;40.60;;;;;;;2.11;81.65;100908.77;107769;1291;22121;-76
2021/11/14 04:39:00;;;;;;;65.80;43.60;;;;;;;2.09;81.50;100909.42;107748;1285;22023;-76
2021/11/14 04:41:30;;;;;;;60.30;45.70;;;;;;;2.05;81.32;100917.32;108274;1280;22042;-76
2021/11/14 04:43:59;;;;;;;56.70;41.70;;;;;;;2.03;81.33;100918.16;108911;1277;24371;-77
2021/11/14 04:46:28;;;;;;;57.20;42.40;;;;;;;1.97;81.12;100920.46;108818;1277;23650;-77
2021/11/14 04:48:57;;;;;;;48.10;41.90;;;;;;;1.91;81.01;100915.93;108689;1277;21975;-77
2021/11/14 04:51:26;;;;;;;47.70;42.20;;;;;;;1.88;81.15;100916.15;108762;1277;21993;-77
2021/11/14 04:53:55;;;;;;;51.60;42.20;;;;;;;1.84;81.06;100914.67;108814;1277;22022;-76
2021/11/14 04:56:25;;;;;;;55.90;44.70;;;;;;;1.81;81.08;100917.48;108658;1277;22097;-77
2021/11/14 04:58:54;;;;;;;59.50;45.30;;;;;;;1.79;81.20;100920.70;108824;1277;23146;-77
2021/11/14 05:01:23;;;;;;;60.70;46.30;;;;;;;1.78;81.23;100920.76;108700;1277;22085;-77
2021/11/14 05:03:52;;;;;;;53.50;44.60;;;;;;;1.77;81.26;100917.35;108814;1275;23069;-77
2021/11/14 05:06:21;;;;;;;66.00;47.10;;;;;;;1.76;81.20;100919.35;108672;1277;22476;-77
2021/11/14 05:08:50;;;;;;;48.70;40.60;;;;;;;1.72;81.06;100920.48;108613;1277;22009;-77
2021/11/14 05:11:19;;;;;;;60.40;41.30;;;;;;;1.65;80.95;100923.67;108682;1277;23125;-77
2021/11/14 05:13:49;;;;;;;54.30;41.40;;;;;;;1.58;80.95;100925.85;108663;1277;22743;-76
2021/11/14 05:16:18;;;;;;;56.50;42.50;;;;;;;1.50;80.88;100931.74;108826;1277;22038;-77
2021/11/14 05:18:47;;;;;;;53.00;38.70;;;;;;;1.46;81.12;100934.11;108425;1283;23058;-77
2021/11/14 05:21:17;;;;;;;57.20;38.40;;;;;;;1.44;81.14;100935.94;108427;1283;23025;-77
2021/11/14 05:23:46;;;;;;;61.60;39.60;;;;;;;1.39;81.11;100937.62;108380;1283;21996;-77
2021/11/14 05:26:15;;;;;;;50.30;39.70;;;;;;;1.36;81.17;100941.09;108398;1283;22001;-78
2021/11/14 05:28:44;;;;;;;60.90;37.00;;;;;;;1.32;81.18;100944.63;108443;1283;22036;-77
2021/11/14 05:31:13;;;;;;;51.40;41.10;;;;;;;1.28;81.35;100948.02;108412;1283;21986;-77
2021/11/14 05:33:43;;;;;;;64.50;40.30;;;;;;;1.27;81.43;100951.25;108411;1283;22020;-77
2021/11/14 05:36:12;;;;;;;53.70;40.60;;;;;;;1.26;81.51;100956.48;108363;1277;22047;-77
2021/11/14 05:38:41;;;;;;;52.90;39.10;;;;;;;1.23;81.41;100962.52;108149;1282;21981;-77
2021/11/14 05:41:10;;;;;;;54.50;39.50;;;;;;;1.21;81.45;100965.60;108298;1283;24413;-76
2021/11/14 05:43:39;;;;;;;49.60;42.60;;;;;;;1.20;81.52;100966.89;108064;1288;23701;-76
2021/11/14 05:46:09;;;;;;;61.50;45.60;;;;;;;1.17;81.51;100971.55;107705;1293;23010;-76
2021/11/14 05:48:38;;;;;;;57.20;40.60;;;;;;;1.17;81.52;100976.96;107216;1297;23618;-76
2021/11/14 05:51:08;;;;;;;64.60;44.50;;;;;;;1.18;81.65;100973.27;107235;1297;22311;-76
2021/11/14 05:53:37;;;;;;;48.90;40.00;;;;;;;1.21;81.67;100973.81;107349;1298;23631;-76
2021/11/14 05:56:06;;;;;;;53.10;40.90;;;;;;;1.19;81.57;100978.39;107269;1298;171165;-78
2021/11/14 06:06:09;;;;;;;55.70;41.60;;;;;;;1.05;81.24;100990.52;108314;1280;22035;-76
2021/11/14 06:08:38;;;;;;;56.30;41.50;;;;;;;0.97;81.26;100994.27;108587;1280;23038;-77
2021/11/14 06:11:07;;;;;;;50.70;41.40;;;;;;;0.93;81.41;100990.70;108694;1278;23075;-77
2021/11/14 06:13:36;;;;;;;54.90;40.60;;;;;;;0.94;81.64;100993.08;108747;1278;21991;-77
2021/11/14 06:16:05;;;;;;;63.70;43.80;;;;;;;0.93;81.54;101002.35;108702;1279;22160;-78
2021/11/14 06:18:34;;;;;;;56.30;39.80;;;;;;;0.96;81.66;101005.48;108662;1278;22090;-77
2021/11/14 06:21:03;;;;;;;56.80;43.40;;;;;;;0.96;81.62;101008.05;108611;1279;22857;-77
2021/11/14 06:23:32;;;;;;;53.40;41.30;;;;;;;0.97;81.81;101014.08;108665;1278;21996;-77
2021/11/14 06:26:02;;;;;;;51.10;37.70;;;;;;;0.98;81.71;101016.45;108717;1278;22781;-77
2021/11/14 06:28:31;;;;;;;44.80;35.90;;;;;;;0.99;81.74;101025.05;108812;1278;21946;-77
2021/11/14 06:31:00;;;;;;;49.10;36.60;;;;;;;1.00;81.80;101030.88;108685;1278;22010;-77
2021/11/14 06:33:29;;;;;;;48.20;34.80;;;;;;;0.98;81.69;101037.59;108861;1277;24397;-77
2021/11/14 06:35:58;;;;;;;49.10;36.20;;;;;;;0.94;81.65;101038.88;108830;1279;21994;-77
2021/11/14 06:38:27;;;;;;;48.90;39.60;;;;;;;0.93;81.78;101039.77;108681;1278;22766;-77
2021/11/14 06:40:57;;;;;;;45.00;40.00;;;;;;;0.97;82.03;101045.14;108771;1278;21990;-77
2021/11/14 06:43:26;;;;;;;62.80;40.20;;;;;;;0.99;82.08;101047.05;108755;1277;22110;-77
2021/11/14 06:45:55;;;;;;;59.40;37.60;;;;;;;1.03;81.96;101047.39;108718;1277;23605;-77
2021/11/14 06:48:25;;;;;;;48.00;37.80;;;;;;;1.02;81.72;101054.39;108734;1276;22022;-77
2021/11/14 06:50:54;;;;;;;51.00;36.70;;;;;;;1.03;81.77;101058.46;108889;1276;22085;-78
2021/11/14 06:53:23;;;;;;;44.50;35.90;;;;;;;1.05;81.82;101062.34;108959;1276;22187;-79
2021/11/14 06:55:53;;;;;;;45.20;35.90;;;;;;;1.07;81.82;101063.61;108846;1277;23030;-79
2021/11/14 06:58:22;;;;;;;48.20;36.20;;;;;;;1.08;81.71;101072.21;108712;1277;22866;-77
2021/11/14 07:00:51;;;;;;;47.50;37.10;;;;;;;1.08;81.58;101077.60;108731;1277;23078;-78
2021/11/14 07:03:21;;;;;;;55.20;42.00;;;;;;;1.12;81.93;101077.38;108812;1277;22029;-78
2021/11/14 07:05:50;;;;;;;53.60;36.70;;;;;;;1.16;81.87;101087.36;108793;1276;23837;-78
2021/11/14 07:08:19;;;;;;;49.40;38.30;;;;;;;1.19;81.72;101094.65;108490;1279;21997;-78
2021/11/14 07:10:49;;;;;;;44.50;36.10;;;;;;;1.20;81.61;101096.71;108543;1283;24898;-76
2021/11/14 07:13:18;;;;;;;55.00;37.50;;;;;;;1.22;81.69;101102.83;108486;1283;23173;-77
2021/11/14 07:15:47;;;;;;;50.30;37.10;;;;;;;1.22;81.53;101101.59;108051;1284;22279;-77
2021/11/14 07:18:16;;;;;;;45.50;36.90;;;;;;;1.24;81.69;101104.45;108298;1285;23630;-78
2021/11/14 07:20:45;;;;;;;46.40;38.70;;;;;;;1.27;81.90;101105.48;107736;1289;23080;-77
2021/11/14 07:23:14;;;;;;;47.80;37.80;;;;;;;1.33;81.98;101111.36;107810;1293;22015;-78
2021/11/14 07:25:44;;;;;;;51.30;40.80;;;;;;;1.39;82.04;101112.75;107858;1289;21999;-78
2021/11/14 07:28:14;;;;;;;51.60;38.50;;;;;;;1.44;82.03;101116.48;108049;1286;23624;-78
2021/11/14 07:30:43;;;;;;;47.50;37.20;;;;;;;1.46;82.06;101118.26;108092;1286;22008;-79
2021/11/14 07:33:16;;;;;;;54.30;39.90;;;;;;;1.50;82.05;101124.77;107574;1291;21992;-78
2021/11/14 07:35:45;;;;;;;57.40;42.60;;;;;;;1.55;82.09;101125.01;108025;1291;23804;-78
2021/11/14 07:38:14;;;;;;;48.30;38.10;;;;;;;1.59;81.94;101126.35;108062;1286;21967;-77
2021/11/14 07:40:43;;;;;;;45.20;38.00;;;;;;;1.60;81.79;101129.06;108275;1285;22304;-77
2021/11/14 07:43:12;;;;;;;45.00;37.40;;;;;;;1.61;81.83;101128.80;108300;1285;22978;-78
2021/11/14 07:45:42;;;;;;;49.00;38.40;;;;;;;1.66;81.92;101133.39;108372;1285;22172;-77
2021/11/14 07:48:11;;;;;;;92.80;62.30;;;;;;;1.68;81.82;101130.84;108429;1285;21990;-76
2021/11/14 07:50:41;;;;;;;73.60;51.80;;;;;;;1.69;81.67;101132.02;108418;1277;23688;-76
2021/11/14 07:53:13;;;;;;;76.90;50.30;;;;;;;1.73;81.92;101133.64;108831;1277;21975;-77
2021/11/14 07:55:42;;;;;;;57.80;41.70;;;;;;;1.81;81.94;101142.73;108405;1285;22971;-77
2021/11/14 07:58:12;;;;;;;54.30;41.00;;;;;;;1.88;82.09;101142.81;108219;1285;22041;-76
2021/11/14 08:00:42;;;;;;;51.60;41.30;;;;;;;1.94;81.90;101149.10;107995;1291;22002;-77
2021/11/14 08:03:11;;;;;;;55.60;41.80;;;;;;;1.99;81.79;101154.35;107992;1291;22004;-76
2021/11/14 08:05:41;;;;;;;54.50;43.50;;;;;;;2.02;81.74;101159.52;108010;1291;22008;-76
2021/11/14 08:08:11;;;;;;;56.30;45.60;;;;;;;2.06;81.72;101163.28;108009;1290;22008;-76
2021/11/14 08:10:40;;;;;;;54.80;42.70;;;;;;;2.10;81.65;101160.27;107800;1291;22122;-76
2021/11/14 08:13:09;;;;;;;48.10;39.20;;;;;;;2.15;81.69;101167.73;108076;1286;23173;-76
2021/11/14 08:15:40;;;;;;;55.30;38.20;;;;;;;2.17;81.34;101172.16;108363;1285;22010;-77
2021/11/14 08:18:09;;;;;;;51.60;40.10;;;;;;;2.17;81.27;101172.55;108432;1280;21990;-77
2021/11/14 08:20:38;;;;;;;48.50;41.30;;;;;;;2.17;81.21;101173.41;108727;1277;22454;-77
2021/11/14 08:23:08;;;;;;;59.10;41.10;;;;;;;2.16;81.22;101176.05;108433;1281;21984;-77
2021/11/14 08:25:37;;;;;;;65.40;44.50;;;;;;;2.13;80.77;101178.00;108400;1283;23120;-77
2021/11/14 08:28:06;;;;;;;63.00;44.50;;;;;;;2.07;80.71;101181.83;108351;1286;21990;-77
2021/11/14 08:30:37;;;;;;;63.90;50.40;;;;;;;2.01;80.67;101184.77;108256;1286;23720;-77
2021/11/14 08:33:10;;;;;;;61.00;50.70;;;;;;;1.98;80.69;101186.36;108146;1287;22465;-77
2021/11/14 08:35:42;;;;;;;62.90;51.60;;;;;;;1.98;80.90;101186.15;107716;1292;24376;-77
2021/11/14 08:38:11;;;;;;;67.20;50.30;;;;;;;2.01;81.16;101188.94;107419;1298;22036;-77
2021/11/14 08:40:41;;;;;;;72.40;58.90;;;;;;;2.06;81.27;101186.91;106878;1298;22816;-77
2021/11/14 08:43:10;;;;;;;60.30;47.70;;;;;;;2.09;81.45;101190.52;107240;1299;22626;-78
2021/11/14 08:45:42;;;;;;;51.80;44.60;;;;;;;2.13;81.33;101194.16;107205;1295;23016;-76
2021/11/14 08:48:12;;;;;;;58.70;49.70;;;;;;;2.13;81.23;101199.87;107658;1293;22034;-76
2021/11/14 08:50:41;;;;;;;58.80;48.00;;;;;;;2.16;81.17;101202.83;107558;1296;23717;-77
2021/11/14 08:53:10;;;;;;;61.90;51.30;;;;;;;2.18;81.22;101204.94;107661;1290;23091;-77
2021/11/14 08:55:39;;;;;;;61.70;49.60;;;;;;;2.19;81.17;101207.69;108096;1283;21994;-76
2021/11/14 08:58:36;;;;;;;56.10;48.40;;;;;;;2.21;81.15;101210.02;108417;1277;21989;-76
2021/11/14 09:01:10;;;;;;;57.30;49.00;;;;;;;2.24;81.16;101213.30;108824;1277;22012;-78
2021/11/14 09:03:39;;;;;;;59.10;46.80;;;;;;;2.30;81.28;101216.05;108761;1277;22439;-77
2021/11/14 09:06:08;;;;;;;50.70;43.10;;;;;;;2.33;81.18;101218.45;108802;1277;22084;-76
2021/11/14 09:08:38;;;;;;;52.20;42.20;;;;;;;2.33;80.82;101220.21;108342;1285;23035;-77
2021/11/14 09:11:07;;;;;;;48.50;40.20;;;;;;;2.37;81.02;101224.50;108402;1284;22091;-77
2021/11/14 09:13:37;;;;;;;51.00;40.90;;;;;;;2.42;80.98;101225.58;108372;1285;23656;-77
2021/11/14 09:16:06;;;;;;;53.90;47.70;;;;;;;2.47;80.97;101228.23;108373;1285;22159;-77
2021/11/14 09:18:36;;;;;;;50.50;42.80;;;;;;;2.50;80.93;101229.44;108073;1289;21988;-77
2021/11/14 09:21:05;;;;;;;60.70;45.60;;;;;;;2.53;80.96;101232.19;108070;1289;22057;-77
2021/11/14 09:23:37;;;;;;;53.70;45.60;;;;;;;2.57;80.98;101231.08;107763;1291;22127;-77
2021/11/14 09:26:08;;;;;;;56.20;43.80;;;;;;;2.62;80.99;101230.48;107536;1296;23698;-76
2021/11/14 09:28:38;;;;;;;54.70;42.70;;;;;;;2.66;81.02;101230.35;107604;1296;23072;-77
2021/11/14 09:31:09;;;;;;;58.20;45.70;;;;;;;2.70;80.88;101230.98;107503;1295;22451;-77
2021/11/14 09:33:40;;;;;;;50.40;39.80;;;;;;;2.75;81.09;101231.51;107818;1291;23116;-77
2021/11/14 09:36:10;;;;;;;49.00;39.70;;;;;;;2.78;80.94;101230.26;107704;1291;23630;-77
2021/11/14 09:38:39;;;;;;;57.20;44.40;;;;;;;2.81;80.95;101228.69;107813;1292;22765;-77
2021/11/14 09:41:10;;;;;;;44.80;39.00;;;;;;;2.86;80.79;101234.36;107945;1291;22048;-77
2021/11/14 09:43:39;;;;;;;62.60;47.40;;;;;;;2.87;80.80;101232.87;108108;1286;22330;-78
2021/11/14 09:46:08;;;;;;;47.80;41.30;;;;;;;2.86;80.68;101240.23;108401;1286;21986;-77
2021/11/14 09:48:39;;;;;;;52.80;41.00;;;;;;;2.88;80.65;101245.14;108337;1283;22455;-76
2021/11/14 09:51:09;;;;;;;55.10;41.20;;;;;;;2.87;80.39;101249.05;108390;1286;22771;-76
2021/11/14 09:53:39;;;;;;;49.70;41.50;;;;;;;2.88;80.45;101257.84;108465;1280;22028;-76
2021/11/14 09:56:14;;;;;;;53.20;45.70;;;;;;;2.92;80.61;101256.88;108674;1277;21983;-77
2021/11/14 09:58:43;;;;;;;52.00;44.10;;;;;;;2.96;80.56;101254.90;108690;1277;22009;-76
2021/11/14 10:01:13;;;;;;;48.10;40.90;;;;;;;2.97;80.30;101255.69;108663;1278;21991;-76
2021/11/14 10:03:44;;;;;;;48.20;42.80;;;;;;;2.94;80.10;101263.05;108500;1286;22993;-77
2021/11/14 10:06:14;;;;;;;49.70;43.00;;;;;;;2.91;80.15;101260.27;108461;1285;22023;-78
2021/11/14 10:08:45;;;;;;;55.30;45.20;;;;;;;2.94;80.37;101260.99;108244;1283;23059;-77
2021/11/14 10:11:15;;;;;;;42.00;34.90;;;;;;;2.97;80.44;101262.68;108244;1286;21996;-77
2021/11/14 10:13:49;;;;;;;40.70;35.80;;;;;;;3.00;80.57;101261.63;108358;1285;23058;-77
2021/11/14 10:16:21;;;;;;;45.10;38.50;;;;;;;3.03;80.47;101266.46;108314;1285;22080;-77
2021/11/14 10:19:13;;;;;;;49.00;39.90;;;;;;;3.08;80.51;101261.13;108350;1285;22020;-77
2021/11/14 10:21:59;;;;;;;55.60;43.60;;;;;;;3.11;80.58;101264.59;108118;1288;23905;-78
2021/11/14 10:24:29;;;;;;;46.80;41.20;;;;;;;3.15;80.51;101264.16;108237;1288;22012;-77
2021/11/14 10:27:15;;;;;;;47.70;42.40;;;;;;;3.18;80.36;101266.04;108011;1288;22009;-77
2021/11/14 10:29:49;;;;;;;52.20;45.00;;;;;;;3.19;80.25;101270.55;108484;1282;23589;-77
2021/11/14 10:32:20;;;;;;;47.10;42.00;;;;;;;3.21;80.27;101271.46;108307;1288;21989;-77
2021/11/14 10:34:59;;;;;;;46.90;41.50;;;;;;;3.20;80.06;101278.79;108088;1288;22047;-77
2021/11/14 10:37:43;;;;;;;49.30;42.60;;;;;;;3.21;80.21;101276.12;108205;1286;22070;-77
2021/11/14 10:40:33;;;;;;;51.40;44.20;;;;;;;3.24;80.19;101282.23;108196;1288;22003;-77
2021/11/14 10:43:03;;;;;;;58.10;49.00;;;;;;;3.24;80.27;101282.70;108092;1288;22770;-77
2021/11/14 10:45:42;;;;;;;61.80;52.00;;;;;;;3.28;80.37;101280.55;107705;1295;22505;-76
2021/11/14 10:48:18;;;;;;;60.10;52.00;;;;;;;3.31;80.25;101282.10;107293;1297;23180;-77
2021/11/14 10:50:52;;;;;;;51.70;46.00;;;;;;;3.33;80.11;101284.92;107336;1294;22046;-77
2021/11/14 10:53:26;;;;;;;58.70;48.70;;;;;;;3.32;80.00;101287.63;107756;1291;22028;-77
2021/11/14 10:56:07;;;;;;;47.20;40.20;;;;;;;3.31;80.00;101285.42;108143;1291;22017;-77
2021/11/14 10:58:40;;;;;;;50.40;42.60;;;;;;;3.34;80.09;101288.73;107855;1289;22429;-77
2021/11/14 11:01:13;;;;;;;51.30;42.40;;;;;;;3.36;80.32;101285.60;108097;1291;22000;-76
2021/11/14 11:03:48;;;;;;;50.00;44.60;;;;;;;3.40;80.14;101284.49;108298;1283;22080;-77
2021/11/14 11:06:28;;;;;;;56.40;45.60;;;;;;;3.39;80.03;101279.37;108533;1279;23688;-76
2021/11/14 11:09:01;;;;;;;55.10;47.00;;;;;;;3.39;80.04;101278.98;108636;1278;23377;-78
2021/11/14 11:11:44;;;;;;;62.10;51.80;;;;;;;3.41;80.19;101282.02;108763;1279;23040;-77
2021/11/14 11:14:25;;;;;;;61.70;53.30;;;;;;;3.46;80.28;101283.57;108846;1278;22223;-76
2021/11/14 11:16:59;;;;;;;58.20;49.70;;;;;;;3.49;80.33;101281.27;108556;1280;23085;-77
2021/11/14 11:19:28;;;;;;;54.60;48.40;;;;;;;3.54;80.25;101282.36;108675;1280;21992;-76
2021/11/14 11:22:04;;;;;;;54.30;43.20;;;;;;;3.58;80.18;101278.33;108738;1279;23126;-78
2021/11/14 11:24:34;;;;;;;52.70;44.70;;;;;;;3.59;80.15;101274.56;108499;1282;22017;-78
2021/11/14 11:27:07;;;;;;;63.30;51.30;;;;;;;3.62;80.32;101280.43;108445;1282;21987;-83
2021/11/14 11:29:40;;;;;;;63.70;52.00;;;;;;;3.66;80.17;101275.67;108409;1285;22512;-78
2021/11/14 11:32:11;;;;;;;63.50;54.20;;;;;;;3.67;80.08;101282.60;108428;1285;22130;-77